Time;durP1;ratioP1;P1;durP2;ratioP2;P2;SDS_P1;SDS_P2;PMS_P1;PMS_P2;Temp;Humidity;BMP_temperature;BMP_pressure;BME280_temperature;BME280_humidity;BME280_pressure;Samples;Min_cycle;Max_cycle;Signal;HPM_P1;HPM_P2
2022/01/04 00:00:37;;;;;;;22.73;9.32;;;8.50;99.90;;;;;;5088253;28;20072;-67
2022/01/04 00:03:02;;;;;;;22.73;9.43;;;8.60;99.90;;;;;;5100484;28;20100;-67
2022/01/04 00:05:28;;;;;;;20.83;8.65;;;8.50;99.90;;;;;;5089171;28;20047;-67
2022/01/04 00:07:54;;;;;;;25.23;8.73;;;8.60;99.90;;;;;;5092958;28;20048;-67
2022/01/04 00:10:22;;;;;;;28.10;9.80;;;8.60;99.90;;;;;;5102544;28;20108;-67
2022/01/04 00:15:35;;;;;;;21.13;8.52;;;8.70;99.90;;;;;;5106937;28;20094;-67
2022/01/04 00:18:02;;;;;;;30.00;9.25;;;8.70;99.90;;;;;;5106752;28;20129;-67
2022/01/04 00:20:28;;;;;;;23.02;8.60;;;8.60;99.90;;;;;;5089754;28;20078;-67
2022/01/04 00:22:53;;;;;;;21.00;8.88;;;8.60;99.90;;;;;;5111076;28;20044;-67
2022/01/04 00:25:19;;;;;;;26.90;8.45;;;8.70;99.90;;;;;;5087970;28;20051;-67
2022/01/04 00:27:45;;;;;;;22.05;7.78;;;8.70;99.90;;;;;;5097469;28;20081;-67
2022/01/04 00:30:11;;;;;;;26.38;7.53;;;8.70;99.90;;;;;;5093461;28;20127;-68
2022/01/04 00:32:37;;;;;;;23.65;7.82;;;8.70;99.90;;;;;;5096558;28;20055;-67
2022/01/04 00:35:03;;;;;;;21.98;7.20;;;8.70;99.90;;;;;;5074457;28;20044;-67
2022/01/04 00:37:29;;;;;;;21.45;7.20;;;8.70;99.90;;;;;;5092854;28;20103;-67
2022/01/04 00:39:54;;;;;;;21.00;6.97;;;8.70;99.90;;;;;;5110020;28;20036;-67
2022/01/04 00:42:20;;;;;;;26.23;8.82;;;8.70;99.90;;;;;;5093286;28;20129;-67
2022/01/04 00:44:46;;;;;;;21.85;8.20;;;8.80;99.90;;;;;;5089080;28;20044;-67
2022/01/04 00:47:11;;;;;;;23.15;7.78;;;8.70;99.90;;;;;;5092138;28;20048;-67
2022/01/04 00:49:37;;;;;;;20.17;7.18;;;8.80;99.90;;;;;;5093615;28;20052;-67
2022/01/04 00:52:04;;;;;;;27.38;7.45;;;8.80;99.90;;;;;;5111300;28;20822;-67
2022/01/04 00:54:29;;;;;;;22.10;7.43;;;8.80;99.90;;;;;;5094683;28;20056;-67
2022/01/04 00:56:55;;;;;;;24.45;7.75;;;8.80;99.90;;;;;;5098081;28;20048;-67
2022/01/04 00:59:21;;;;;;;23.65;7.35;;;8.80;99.90;;;;;;5112176;28;20448;-67
2022/01/04 01:01:46;;;;;;;24.02;6.97;;;8.70;99.90;;;;;;5092851;28;20052;-67
2022/01/04 01:04:13;;;;;;;24.90;8.07;;;8.80;99.90;;;;;;5103581;28;20051;-67
2022/01/04 01:06:39;;;;;;;21.58;7.15;;;8.70;99.90;;;;;;5094851;28;20052;-67
2022/01/04 01:09:05;;;;;;;24.02;7.43;;;8.60;99.90;;;;;;5110326;28;20509;-67
2022/01/04 01:11:31;;;;;;;24.63;7.60;;;8.60;99.90;;;;;;5093165;28;20054;-67
2022/01/04 01:13:56;;;;;;;19.98;7.28;;;8.50;99.90;;;;;;5113678;28;20068;-67
2022/01/04 01:16:22;;;;;;;19.10;6.93;;;8.60;99.90;;;;;;5106005;28;20083;-67
2022/01/04 01:18:48;;;;;;;22.92;7.18;;;8.60;99.90;;;;;;5090324;28;21155;-67
2022/01/04 01:21:14;;;;;;;23.40;8.18;;;8.60;99.90;;;;;;5104663;28;20103;-67
2022/01/04 01:23:40;;;;;;;25.58;7.68;;;8.50;99.90;;;;;;5086197;28;20051;-67
2022/01/04 01:26:07;;;;;;;24.45;8.23;;;8.60;99.90;;;;;;5069851;28;20067;-67
2022/01/04 01:28:34;;;;;;;18.17;7.95;;;8.50;99.90;;;;;;5107644;28;20051;-67
2022/01/04 01:31:00;;;;;;;21.45;8.27;;;8.50;99.90;;;;;;5093936;28;20073;-67
2022/01/04 01:33:27;;;;;;;19.63;7.82;;;8.50;99.90;;;;;;5100852;28;20051;-67
2022/01/04 01:35:57;;;;;;;21.48;7.10;;;8.50;99.90;;;;;;5090177;28;20052;-67
2022/01/04 01:38:23;;;;;;;22.30;7.90;;;8.60;99.90;;;;;;5092731;28;20048;-67
2022/01/04 01:40:51;;;;;;;21.50;7.20;;;8.50;99.90;;;;;;5102509;28;20488;-67
2022/01/04 01:43:20;;;;;;;22.30;7.70;;;8.50;99.90;;;;;;5056311;28;20099;-67
2022/01/04 01:45:46;;;;;;;24.75;8.40;;;8.50;99.90;;;;;;5074969;28;20047;-67
2022/01/04 01:48:12;;;;;;;19.00;7.65;;;8.50;99.90;;;;;;5071641;28;20036;-67
2022/01/04 01:50:39;;;;;;;18.80;7.30;;;8.60;99.90;;;;;;5100996;28;20059;-67
2022/01/04 01:53:05;;;;;;;24.95;8.65;;;8.50;99.90;;;;;;5107972;28;20044;-67
2022/01/04 01:55:31;;;;;;;20.17;8.35;;;8.60;99.90;;;;;;5090368;28;20056;-67
2022/01/04 01:57:57;;;;;;;18.42;7.57;;;8.70;99.90;;;;;;5089176;28;20097;-67
2022/01/04 02:00:26;;;;;;;27.98;9.73;;;8.60;99.90;;;;;;5090065;28;20040;-67
2022/01/04 02:02:52;;;;;;;22.05;8.05;;;8.60;99.90;;;;;;5101004;28;20062;-67
2022/01/04 02:05:18;;;;;;;16.80;7.60;;;8.60;99.90;;;;;;5107628;28;20047;-67
2022/01/04 02:07:44;;;;;;;28.10;9.25;;;8.60;99.90;;;;;;5090392;28;20040;-67
2022/01/04 02:10:11;;;;;;;29.92;9.25;;;8.70;99.90;;;;;;5106644;28;20073;-67
2022/01/04 02:12:47;;;;;;;26.85;8.23;;;8.70;99.90;;;;;;5091437;28;20044;-67
2022/01/04 02:15:23;;;;;;;21.63;8.82;;;8.70;99.90;;;;;;5088262;28;20035;-67
2022/01/04 02:17:49;;;;;;;22.85;9.25;;;8.70;99.90;;;;;;5107059;28;20135;-67
2022/01/04 02:20:17;;;;;;;21.70;8.55;;;8.70;99.90;;;;;;5106429;28;20036;-67
2022/01/04 02:22:44;;;;;;;29.75;10.73;;;8.70;99.90;;;;;;5088531;28;20047;-67
2022/01/04 02:25:10;;;;;;;24.92;10.10;;;8.70;99.90;;;;;;5107152;28;20121;-67
2022/01/04 02:27:38;;;;;;;23.70;9.32;;;8.70;99.90;;;;;;5108689;28;20036;-67
2022/01/04 02:30:07;;;;;;;25.23;10.43;;;8.70;99.90;;;;;;5106679;28;20075;-67
2022/01/04 02:32:33;;;;;;;23.38;9.80;;;8.80;99.90;;;;;;5110663;28;20085;-67
2022/01/04 02:34:58;;;;;;;25.08;9.88;;;8.70;99.90;;;;;;5072407;28;20115;-67
2022/01/04 02:37:26;;;;;;;25.92;9.35;;;8.60;99.90;;;;;;5092074;28;20084;-67
2022/01/04 02:39:53;;;;;;;20.52;9.57;;;8.70;99.90;;;;;;5106501;28;20048;-67
2022/01/04 02:42:19;;;;;;;23.95;10.02;;;8.70;99.90;;;;;;5099656;28;20048;-67
2022/01/04 02:44:46;;;;;;;25.45;9.07;;;8.70;99.90;;;;;;5089001;28;20051;-67
2022/01/04 02:47:13;;;;;;;24.08;9.68;;;8.70;99.90;;;;;;5099469;28;20073;-67
2022/01/04 02:49:38;;;;;;;27.23;9.13;;;8.60;99.90;;;;;;5094635;28;20044;-67
2022/01/04 02:52:04;;;;;;;25.83;8.70;;;8.50;99.90;;;;;;5108898;28;20044;-67
2022/01/04 02:54:30;;;;;;;30.20;10.68;;;8.50;99.90;;;;;;5089029;28;20056;-67
2022/01/04 02:56:56;;;;;;;18.35;8.13;;;8.60;99.90;;;;;;5093654;28;20097;-67
2022/01/04 02:59:22;;;;;;;19.75;9.10;;;8.60;99.90;;;;;;5108908;28;20491;-67
2022/01/04 03:01:47;;;;;;;29.15;10.23;;;8.50;99.90;;;;;;5110171;28;20074;-67
2022/01/04 03:04:13;;;;;;;24.13;9.05;;;8.40;99.90;;;;;;5106278;28;20119;-67
2022/01/04 03:06:39;;;;;;;25.00;9.52;;;8.50;99.90;;;;;;5087634;28;20054;-67
2022/01/04 03:09:06;;;;;;;27.45;10.30;;;8.40;99.90;;;;;;5082313;28;20059;-67
2022/01/04 03:11:33;;;;;;;27.17;9.82;;;8.40;99.90;;;;;;5093719;28;20068;-67
2022/01/04 03:13:59;;;;;;;25.42;10.55;;;8.40;99.90;;;;;;5108285;28;20040;-67
2022/01/04 03:16:25;;;;;;;34.53;11.07;;;8.40;99.90;;;;;;5094458;28;20096;-67
2022/01/04 03:21:23;;;;;;;21.45;10.93;;;8.50;99.90;;;;;;5099866;28;20079;-67
2022/01/04 03:23:48;;;;;;;32.63;11.25;;;8.30;99.90;;;;;;5107913;28;20044;-67
2022/01/04 03:26:14;;;;;;;28.38;11.60;;;8.40;99.90;;;;;;5096303;28;20040;-67
2022/01/04 03:28:40;;;;;;;27.52;11.85;;;8.30;99.90;;;;;;5093955;28;20113;-67
2022/01/04 03:31:07;;;;;;;29.10;12.00;;;8.30;99.90;;;;;;5093650;28;20048;-69
2022/01/04 03:33:35;;;;;;;28.65;10.85;;;8.40;99.90;;;;;;5105678;28;20123;-67
2022/01/04 03:36:04;;;;;;;27.67;11.93;;;8.40;99.90;;;;;;5109717;28;20099;-67
2022/01/04 03:38:31;;;;;;;25.57;11.77;;;8.40;99.90;;;;;;5105933;28;20083;-67
2022/01/04 03:40:57;;;;;;;32.30;12.82;;;8.50;99.90;;;;;;5086838;28;20044;-67
2022/01/04 03:43:23;;;;;;;31.27;12.18;;;8.30;99.90;;;;;;5092550;28;20086;-67
2022/01/04 03:45:49;;;;;;;31.88;13.35;;;8.40;99.90;;;;;;5107270;28;20044;-67
2022/01/04 03:48:15;;;;;;;27.05;12.80;;;8.40;99.90;;;;;;5105525;28;20044;-67
2022/01/04 03:50:41;;;;;;;30.98;12.65;;;8.40;99.90;;;;;;5099951;28;20048;-67
2022/01/04 03:53:07;;;;;;;26.77;12.07;;;8.40;99.90;;;;;;5105818;28;20048;-67
2022/01/04 03:55:33;;;;;;;26.83;12.98;;;8.40;99.90;;;;;;5090387;28;20051;-67
2022/01/04 03:57:59;;;;;;;30.58;14.05;;;8.40;99.90;;;;;;5091683;28;20048;-67
2022/01/04 04:00:25;;;;;;;33.25;12.88;;;8.30;99.90;;;;;;5092169;28;20032;-67
2022/01/04 04:02:51;;;;;;;29.98;13.15;;;8.20;99.90;;;;;;5088866;28;20056;-67
2022/01/04 04:05:17;;;;;;;27.10;12.43;;;8.20;99.90;;;;;;5091144;28;20043;-67
2022/01/04 04:07:43;;;;;;;27.25;13.05;;;8.30;99.90;;;;;;5093591;28;20044;-67
2022/01/04 04:10:09;;;;;;;28.75;12.43;;;8.40;99.90;;;;;;5107308;28;20043;-67
2022/01/04 04:12:35;;;;;;;26.27;11.63;;;8.30;99.90;;;;;;5106429;28;20081;-67
2022/01/04 04:15:04;;;;;;;29.40;12.48;;;8.40;99.90;;;;;;5090097;28;20399;-67
2022/01/04 04:17:31;;;;;;;27.98;12.70;;;8.50;99.90;;;;;;5091231;28;20063;-67
2022/01/04 04:19:57;;;;;;;31.35;12.98;;;8.60;99.90;;;;;;5102920;28;20044;-67
2022/01/04 04:22:22;;;;;;;29.85;12.25;;;8.50;99.90;;;;;;5094686;28;20444;-67
2022/01/04 04:24:48;;;;;;;31.50;12.60;;;8.50;99.90;;;;;;5090990;28;20044;-67
2022/01/04 04:27:14;;;;;;;30.42;12.65;;;8.30;99.90;;;;;;5093137;28;20047;-67
2022/01/04 04:29:40;;;;;;;31.65;13.50;;;8.40;99.90;;;;;;5075175;28;20098;-67
2022/01/04 04:32:07;;;;;;;29.45;13.45;;;8.40;99.90;;;;;;5089569;28;20484;-67
2022/01/04 04:34:34;;;;;;;26.73;13.90;;;8.40;99.90;;;;;;5072139;28;20079;-67
2022/01/04 04:37:00;;;;;;;28.42;13.77;;;8.30;99.90;;;;;;5094157;28;20052;-67
2022/01/04 04:39:25;;;;;;;30.95;12.77;;;8.50;99.90;;;;;;5104601;28;20130;-67
2022/01/04 04:41:52;;;;;;;31.90;14.07;;;8.50;99.90;;;;;;5108361;28;20048;-67
2022/01/04 04:44:18;;;;;;;32.95;13.45;;;8.60;99.90;;;;;;5105226;28;20054;-67
2022/01/04 04:46:45;;;;;;;32.40;14.35;;;8.60;99.90;;;;;;5088440;28;20083;-67
2022/01/04 04:49:10;;;;;;;30.65;13.45;;;8.50;99.90;;;;;;5090924;28;20044;-67
2022/01/04 04:51:36;;;;;;;28.63;13.18;;;8.50;99.90;;;;;;5093151;28;20073;-67
2022/01/04 04:54:03;;;;;;;30.15;13.60;;;8.50;99.90;;;;;;5087264;28;20040;-67
2022/01/04 04:56:28;;;;;;;28.85;14.48;;;8.60;99.90;;;;;;5070871;28;20055;-67
2022/01/04 04:58:54;;;;;;;34.05;15.98;;;8.50;99.90;;;;;;5104643;28;20044;-67
2022/01/04 05:01:20;;;;;;;31.25;14.77;;;8.50;99.90;;;;;;5107306;28;20083;-67
2022/01/04 05:03:45;;;;;;;35.78;15.85;;;8.50;99.90;;;;;;5094907;28;20066;-67
2022/01/04 05:06:11;;;;;;;31.50;15.88;;;8.50;99.90;;;;;;5104036;28;20127;-67
2022/01/04 05:08:37;;;;;;;34.75;16.60;;;8.60;99.90;;;;;;5092211;28;20055;-67
2022/01/04 05:11:03;;;;;;;41.10;17.30;;;8.40;99.90;;;;;;5112005;28;20036;-67
2022/01/04 05:13:29;;;;;;;39.80;18.27;;;8.30;99.90;;;;;;5108460;28;20123;-67
2022/01/04 05:15:55;;;;;;;33.40;17.15;;;8.40;99.90;;;;;;5090282;28;20048;-67
2022/01/04 05:18:21;;;;;;;37.55;17.67;;;8.30;99.90;;;;;;5089861;28;20078;-67
2022/01/04 05:20:47;;;;;;;37.58;18.60;;;8.20;99.90;;;;;;5111218;28;20100;-67
2022/01/04 05:23:12;;;;;;;35.67;18.13;;;8.20;99.90;;;;;;5095431;28;20052;-67
2022/01/04 05:25:38;;;;;;;37.00;17.77;;;8.20;99.90;;;;;;5108441;28;20043;-67
2022/01/04 05:28:04;;;;;;;34.72;18.98;;;8.30;99.90;;;;;;5114779;28;20040;-67
2022/01/04 05:30:30;;;;;;;35.80;18.10;;;8.30;99.90;;;;;;5106849;28;20441;-68
2022/01/04 05:32:55;;;;;;;39.60;18.67;;;8.40;99.90;;;;;;5108217;28;20484;-67
2022/01/04 05:35:21;;;;;;;37.03;17.45;;;8.50;99.90;;;;;;5109835;28;20044;-67
2022/01/04 05:37:47;;;;;;;34.30;15.75;;;8.50;99.90;;;;;;5094079;28;20492;-67
2022/01/04 05:40:12;;;;;;;30.98;17.25;;;8.30;99.90;;;;;;5107026;28;20056;-67
2022/01/04 05:42:38;;;;;;;31.88;16.55;;;8.40;99.90;;;;;;5107424;28;20063;-67
2022/01/04 05:45:05;;;;;;;31.55;16.40;;;8.20;99.90;;;;;;5090136;28;20040;-67
2022/01/04 05:47:30;;;;;;;33.35;17.48;;;8.20;99.90;;;;;;5101305;28;20135;-67
2022/01/04 05:49:56;;;;;;;28.95;16.10;;;8.10;99.90;;;;;;5089489;28;20148;-67
2022/01/04 05:52:22;;;;;;;29.25;17.38;;;8.10;99.90;;;;;;5089791;28;20043;-67
2022/01/04 05:54:49;;;;;;;27.15;16.35;;;8.10;99.90;;;;;;5097257;28;20052;-67
2022/01/04 05:57:16;;;;;;;35.03;17.33;;;8.10;99.90;;;;;;5096182;28;20076;-67
2022/01/04 05:59:41;;;;;;;32.67;17.15;;;8.10;99.90;;;;;;5096091;28;20048;-67
2022/01/04 06:02:07;;;;;;;34.33;16.85;;;8.10;99.90;;;;;;5089396;28;20062;-67
2022/01/04 06:04:33;;;;;;;33.33;16.95;;;8.00;99.90;;;;;;5090125;28;20110;-67
2022/01/04 06:06:59;;;;;;;33.50;17.05;;;8.10;99.90;;;;;;5078273;28;20051;-67
2022/01/04 06:09:28;;;;;;;31.02;16.88;;;8.00;99.90;;;;;;5094475;28;20055;-67
2022/01/04 06:11:58;;;;;;;36.00;17.02;;;8.10;99.90;;;;;;5106819;28;20168;-67
2022/01/04 06:17:10;;;;;;;32.58;16.63;;;8.00;99.90;;;;;;5106914;28;20051;-67
2022/01/04 06:19:38;;;;;;;31.25;15.45;;;8.10;99.90;;;;;;5088709;28;20090;-67
2022/01/04 06:22:04;;;;;;;32.25;15.88;;;8.20;99.90;;;;;;5086207;28;20040;-67
2022/01/04 06:24:29;;;;;;;33.80;15.90;;;8.20;99.90;;;;;;5107539;28;20048;-67
2022/01/04 06:26:55;;;;;;;30.70;15.65;;;8.20;99.90;;;;;;5096637;28;20039;-67
2022/01/04 06:29:22;;;;;;;27.65;15.57;;;8.20;99.90;;;;;;5107208;28;20040;-67
2022/01/04 06:31:48;;;;;;;32.40;16.63;;;8.00;99.90;;;;;;5106213;28;20055;-67
2022/01/04 06:34:14;;;;;;;33.03;16.00;;;8.20;99.90;;;;;;5090178;28;20040;-67
2022/01/04 06:36:40;;;;;;;36.85;16.70;;;8.10;99.90;;;;;;5098436;28;20083;-67
2022/01/04 06:39:06;;;;;;;29.25;15.90;;;8.00;99.90;;;;;;5091482;28;20052;-67
2022/01/04 06:41:31;;;;;;;30.70;15.57;;;8.10;99.90;;;;;;5090934;28;20059;-67
2022/01/04 06:43:57;;;;;;;30.40;16.23;;;8.20;99.90;;;;;;5106468;28;20093;-67
2022/01/04 06:46:25;;;;;;;30.88;15.32;;;8.20;99.90;;;;;;5106724;28;20054;-67
2022/01/04 06:48:51;;;;;;;34.60;17.40;;;8.20;99.90;;;;;;5110901;28;20488;-67
2022/01/04 06:51:17;;;;;;;34.78;17.13;;;8.20;99.90;;;;;;5088810;28;20096;-67
2022/01/04 06:53:42;;;;;;;30.27;16.95;;;8.20;99.90;;;;;;5104876;28;20100;-68
2022/01/04 06:56:08;;;;;;;34.83;17.35;;;8.10;99.90;;;;;;5095451;28;20067;-67
2022/01/04 06:58:34;;;;;;;34.15;17.60;;;8.10;99.90;;;;;;5091329;28;20052;-67
2022/01/04 07:01:00;;;;;;;36.50;17.05;;;8.10;99.90;;;;;;5093269;28;20047;-68
2022/01/04 07:03:25;;;;;;;35.38;18.30;;;8.30;99.90;;;;;;5105103;28;20077;-67
2022/01/04 07:05:51;;;;;;;32.22;18.48;;;8.00;99.90;;;;;;5094514;28;20047;-67
2022/01/04 07:08:17;;;;;;;38.97;18.48;;;8.00;99.90;;;;;;5088593;28;20042;-67
2022/01/04 07:10:43;;;;;;;34.35;19.20;;;8.00;99.90;;;;;;5088114;28;20094;-67
2022/01/04 07:13:08;;;;;;;35.75;18.90;;;8.10;99.90;;;;;;5094764;28;20046;-67
2022/01/04 07:15:35;;;;;;;34.50;18.20;;;8.00;99.90;;;;;;5097879;28;20036;-67
2022/01/04 07:18:01;;;;;;;36.80;18.77;;;8.20;99.90;;;;;;5087938;28;20101;-67
2022/01/04 07:20:27;;;;;;;37.47;20.35;;;8.00;99.90;;;;;;5059621;28;20487;-67
2022/01/04 07:22:53;;;;;;;32.45;18.60;;;8.10;99.90;;;;;;5109686;28;20059;-67
2022/01/04 07:25:18;;;;;;;45.55;20.98;;;8.00;99.90;;;;;;5093079;28;20134;-67
2022/01/04 07:27:44;;;;;;;43.58;19.63;;;8.00;99.90;;;;;;5109402;28;20051;-67
2022/01/04 07:30:11;;;;;;;41.13;20.42;;;8.00;99.90;;;;;;5091082;28;20040;-67
2022/01/04 07:32:37;;;;;;;39.67;21.05;;;7.90;99.90;;;;;;5087386;28;20048;-67
2022/01/04 07:35:02;;;;;;;44.50;21.30;;;8.00;99.90;;;;;;5104448;28;20043;-67
2022/01/04 07:37:28;;;;;;;41.03;21.65;;;8.00;99.90;;;;;;5093180;28;20048;-67
2022/01/04 07:39:54;;;;;;;41.38;20.77;;;8.10;99.90;;;;;;5087394;28;20488;-67
2022/01/04 07:42:19;;;;;;;39.67;21.38;;;8.00;99.90;;;;;;5077118;28;20063;-67
2022/01/04 07:44:45;;;;;;;36.17;17.85;;;8.00;99.90;;;;;;5087184;28;20130;-67
2022/01/04 07:47:11;;;;;;;32.03;19.23;;;8.00;99.90;;;;;;5059286;28;20044;-68
2022/01/04 07:49:37;;;;;;;37.90;20.30;;;8.10;99.90;;;;;;5102899;28;20103;-68
2022/01/04 07:52:03;;;;;;;37.22;19.13;;;7.90;99.90;;;;;;5043820;28;20048;-67
2022/01/04 07:54:28;;;;;;;36.47;18.50;;;7.90;99.90;;;;;;5067536;28;20135;-67
2022/01/04 07:56:55;;;;;;;36.72;19.88;;;7.90;99.90;;;;;;5046931;28;20056;-67
2022/01/04 07:59:21;;;;;;;37.25;19.45;;;8.00;99.90;;;;;;5070105;28;20126;-67
2022/01/04 08:01:46;;;;;;;37.38;19.63;;;7.90;99.90;;;;;;5096319;28;20048;-68
2022/01/04 08:04:12;;;;;;;32.50;17.63;;;7.90;99.90;;;;;;5102257;28;20051;-66
2022/01/04 08:06:39;;;;;;;34.47;17.92;;;8.00;99.90;;;;;;5051049;28;20107;-66
2022/01/04 08:09:05;;;;;;;38.72;19.38;;;7.90;99.90;;;;;;5079306;28;20632;-69
2022/01/04 08:11:30;;;;;;;28.70;18.38;;;7.90;99.90;;;;;;5087078;28;20052;-68
2022/01/04 08:13:56;;;;;;;37.70;20.70;;;8.00;99.90;;;;;;5092062;28;20043;-69
2022/01/04 08:16:22;;;;;;;47.58;23.08;;;7.90;99.90;;;;;;5057256;28;20048;-70
2022/01/04 08:18:48;;;;;;;40.50;21.23;;;7.90;99.90;;;;;;5081479;28;20208;-69
2022/01/04 08:21:13;;;;;;;41.25;21.67;;;7.90;99.90;;;;;;5113063;28;20112;-68
2022/01/04 08:23:39;;;;;;;37.75;20.52;;;8.00;99.90;;;;;;5063499;28;20048;-68
2022/01/04 08:26:05;;;;;;;34.28;20.70;;;8.10;99.90;;;;;;5095438;28;20040;-69
2022/01/04 08:28:30;;;;;;;36.38;20.30;;;8.10;99.90;;;;;;5084930;28;20071;-70
2022/01/04 08:30:56;;;;;;;36.70;20.65;;;8.00;99.90;;;;;;5094224;28;20070;-70
2022/01/04 08:33:22;;;;;;;36.85;21.50;;;8.10;99.90;;;;;;5082188;28;20060;-70
2022/01/04 08:35:48;;;;;;;38.63;21.60;;;8.00;99.90;;;;;;5077349;28;20452;-68
2022/01/04 08:38:14;;;;;;;39.38;20.52;;;8.00;99.90;;;;;;5071296;28;20055;-69
2022/01/04 08:40:40;;;;;;;38.55;21.45;;;8.00;99.90;;;;;;5100092;28;20064;-67
2022/01/04 08:43:06;;;;;;;38.58;20.90;;;7.90;99.90;;;;;;5101084;28;20163;-73
2022/01/04 08:45:33;;;;;;;40.47;21.65;;;7.90;99.90;;;;;;5082057;28;20552;-68
2022/01/04 08:47:59;;;;;;;37.78;20.33;;;8.00;99.90;;;;;;5066813;28;20056;-68
2022/01/04 08:50:27;;;;;;;38.63;20.55;;;7.90;99.90;;;;;;5082669;28;20380;-67
2022/01/04 08:52:54;;;;;;;40.05;20.65;;;7.90;99.90;;;;;;5043018;28;20317;-67
2022/01/04 08:55:21;;;;;;;41.25;21.23;;;8.00;99.90;;;;;;5079109;28;20047;-66
2022/01/04 08:57:47;;;;;;;37.17;19.90;;;8.00;99.90;;;;;;5057766;28;20045;-67
2022/01/04 09:00:13;;;;;;;38.20;20.38;;;7.90;99.90;;;;;;5076743;28;20048;-67
2022/01/04 09:02:40;;;;;;;40.25;20.50;;;7.90;99.90;;;;;;5077627;28;20052;-67
2022/01/04 09:05:06;;;;;;;41.53;21.27;;;7.90;99.90;;;;;;5100190;28;20436;-67
2022/01/04 09:07:33;;;;;;;15.18;7.20;;;7.80;99.90;;;;;;5100086;27;20067;-67
2022/01/04 09:09:59;;;;;;;12.93;6.57;;;7.60;99.90;;;;;;5111554;27;20451;-70
2022/01/04 09:12:32;;;;;;;18.20;8.77;;;7.50;99.90;;;;;;5092754;28;20043;-69
2022/01/04 09:15:05;;;;;;;9.90;4.72;;;7.40;99.90;;;;;;5098498;28;20076;-70
2022/01/04 09:20:15;;;;;;;17.63;6.15;;;7.10;99.90;;;;;;5114976;28;20044;-66
2022/01/04 09:22:42;;;;;;;16.05;6.22;;;7.00;99.90;;;;;;5104891;27;20137;-65
2022/01/04 09:25:09;;;;;;;15.85;6.85;;;7.10;99.90;;;;;;5113352;28;20074;-65
2022/01/04 09:27:36;;;;;;;11.60;6.32;;;7.00;99.90;;;;;;5107430;28;20051;-66
2022/01/04 09:30:04;;;;;;;12.30;5.43;;;7.00;99.90;;;;;;5107329;28;20946;-66
2022/01/04 09:32:35;;;;;;;12.50;5.05;;;6.90;99.90;;;;;;5100368;28;20080;-65
2022/01/04 09:35:02;;;;;;;8.75;3.40;;;6.90;99.90;;;;;;5090048;28;20052;-65
2022/01/04 09:37:28;;;;;;;9.80;3.70;;;6.80;99.90;;;;;;5088792;28;20213;-65
2022/01/04 09:39:54;;;;;;;9.77;3.47;;;6.80;99.90;;;;;;5081325;28;20045;-65
2022/01/04 09:42:21;;;;;;;7.85;2.83;;;6.80;99.90;;;;;;5082969;28;20084;-65
2022/01/04 09:44:49;;;;;;;10.48;3.97;;;6.80;99.90;;;;;;5094083;28;20037;-65
2022/01/04 09:47:14;;;;;;;12.10;2.97;;;6.90;99.90;;;;;;5083372;27;20040;-65
2022/01/04 09:49:40;;;;;;;12.45;3.60;;;6.80;99.90;;;;;;5113209;28;20062;-65
2022/01/04 09:52:09;;;;;;;10.23;3.30;;;6.80;99.90;;;;;;5091611;28;20044;-65
2022/01/04 09:54:38;;;;;;;13.00;3.35;;;6.80;99.90;;;;;;5078695;28;20045;-65
2022/01/04 09:57:04;;;;;;;10.05;3.42;;;6.80;99.90;;;;;;5071663;28;20052;-65
2022/01/04 09:59:30;;;;;;;9.52;3.50;;;7.00;99.90;;;;;;5077512;28;20342;-64
2022/01/04 10:02:02;;;;;;;10.10;3.40;;;7.00;99.90;;;;;;5066894;28;20070;-65
2022/01/04 10:04:27;;;;;;;12.27;3.50;;;7.10;99.90;;;;;;5064913;28;20053;-65
2022/01/04 10:07:05;;;;;;;13.77;3.20;;;7.10;99.90;;;;;;5069947;28;20051;-65
2022/01/04 10:09:38;;;;;;;10.70;3.65;;;7.10;99.90;;;;;;5090452;28;20055;-64
2022/01/04 10:12:06;;;;;;;12.95;3.33;;;7.20;99.90;;;;;;5080170;28;20485;-65
2022/01/04 10:14:39;;;;;;;13.85;3.20;;;7.20;99.90;;;;;;5110265;27;20052;-65
2022/01/04 10:17:14;;;;;;;12.93;3.47;;;7.30;99.90;;;;;;5090541;28;20052;-65
2022/01/04 10:19:41;;;;;;;13.25;3.15;;;7.20;99.90;;;;;;5088343;28;20541;-65
2022/01/04 10:22:15;;;;;;;14.45;3.78;;;7.30;99.90;;;;;;5085246;28;20063;-65
2022/01/04 10:24:43;;;;;;;14.77;3.47;;;7.20;99.90;;;;;;5076506;28;20143;-65
2022/01/04 10:27:31;;;;;;;11.32;3.00;;;7.20;99.90;;;;;;5057186;28;20071;-65
2022/01/04 10:30:13;;;;;;;8.85;2.97;;;7.10;99.90;;;;;;5071297;28;20345;-65
2022/01/04 10:32:50;;;;;;;10.85;2.60;;;7.20;99.90;;;;;;5068981;28;20575;-65
2022/01/04 10:35:25;;;;;;;3.80;1.55;;;7.10;99.90;;;;;;5073306;28;20080;-65
2022/01/04 10:37:52;;;;;;;7.07;1.90;;;7.30;99.90;;;;;;5071460;28;20068;-65
2022/01/04 10:40:18;;;;;;;6.25;1.63;;;7.30;99.90;;;;;;5068290;28;20127;-65
2022/01/04 10:42:44;;;;;;;5.40;1.52;;;7.30;99.90;;;;;;5071638;28;20083;-65
2022/01/04 10:45:26;;;;;;;7.57;1.60;;;7.20;99.90;;;;;;5078032;28;20041;-65
2022/01/04 10:47:52;;;;;;;2.75;1.10;;;7.30;99.90;;;;;;5069036;28;20100;-65
2022/01/04 10:50:34;;;;;;;5.97;1.75;;;7.10;99.90;;;;;;5077722;28;20105;-64
2022/01/04 10:53:02;;;;;;;6.05;1.30;;;7.20;99.90;;;;;;5068633;28;20048;-64
2022/01/04 10:55:35;;;;;;;4.55;1.45;;;7.20;99.90;;;;;;5078768;28;20052;-65
2022/01/04 10:58:02;;;;;;;3.97;1.58;;;7.20;99.90;;;;;;5069477;28;20404;-66
2022/01/04 11:00:28;;;;;;;5.30;1.85;;;7.10;99.90;;;;;;5075449;28;20062;-65
2022/01/04 11:02:57;;;;;;;6.10;1.60;;;7.10;99.90;;;;;;5081992;28;20133;-64
2022/01/04 11:05:24;;;;;;;9.35;1.80;;;7.10;99.90;;;;;;5082929;28;20044;-64
2022/01/04 11:07:56;;;;;;;6.15;2.08;;;7.00;99.90;;;;;;5055677;28;20659;-64
2022/01/04 11:10:22;;;;;;;5.38;1.75;;;6.80;99.90;;;;;;5076779;28;20072;-64
2022/01/04 11:12:48;;;;;;;6.60;1.70;;;6.90;99.90;;;;;;5071131;28;20055;-64
2022/01/04 11:15:15;;;;;;;3.92;1.30;;;6.90;99.90;;;;;;5095464;28;20055;-63
2022/01/04 11:17:41;;;;;;;5.63;1.33;;;7.30;99.90;;;;;;5101466;28;20043;-64
2022/01/04 11:20:07;;;;;;;5.38;1.30;;;7.50;99.90;;;;;;5118489;27;20039;-64
2022/01/04 11:22:48;;;;;;;3.63;1.27;;;7.50;99.90;;;;;;5117062;27;20448;-63
2022/01/04 11:25:16;;;;;;;3.42;1.20;;;7.40;99.90;;;;;;5103664;28;20067;-63
2022/01/04 11:27:43;;;;;;;3.33;1.30;;;7.50;99.90;;;;;;5104459;27;20113;-64
2022/01/04 11:30:30;;;;;;;2.72;1.17;;;7.70;99.90;;;;;;5115811;28;20046;-63
2022/01/04 11:33:02;;;;;;;1.80;0.90;;;7.60;99.90;;;;;;5111630;27;20065;-63
2022/01/04 11:35:29;;;;;;;3.60;1.00;;;7.60;99.90;;;;;;5113613;27;20040;-64
2022/01/04 11:37:57;;;;;;;1.85;0.77;;;7.60;99.90;;;;;;5120959;27;20155;-64
2022/01/04 11:40:36;;;;;;;2.67;1.10;;;7.70;99.90;;;;;;5122523;27;20067;-65
2022/01/04 11:43:04;;;;;;;3.38;1.08;;;7.60;99.90;;;;;;5112879;27;20051;-65
2022/01/04 11:45:45;;;;;;;2.50;0.90;;;7.60;99.90;;;;;;5116912;27;20055;-65
2022/01/04 11:48:27;;;;;;;;;;;7.50;99.90;;;;;;5090184;27;20051;-63
2022/01/04 11:50:58;;;;;;;3.90;1.02;;;7.40;99.90;;;;;;5124706;28;19967;-63
2022/01/04 11:53:24;;;;;;;3.88;0.90;;;7.30;99.90;;;;;;5097217;28;20043;-63
2022/01/04 11:55:52;;;;;;;1.52;0.70;;;7.30;99.90;;;;;;5106555;28;20520;-64
2022/01/04 11:58:20;;;;;;;4.57;1.30;;;7.40;99.90;;;;;;5108211;27;20039;-64
2022/01/04 12:01:02;;;;;;;3.70;0.85;;;7.50;99.90;;;;;;5121468;28;20076;-63
2022/01/04 12:03:41;;;;;;;2.50;0.73;;;7.40;99.90;;;;;;5111312;27;20106;-63
2022/01/04 12:06:08;;;;;;;5.55;1.00;;;7.40;99.90;;;;;;5117540;27;20048;-64
2022/01/04 12:08:36;;;;;;;2.58;0.80;;;7.50;99.90;;;;;;5122965;27;20082;-64
2022/01/04 12:11:03;;;;;;;2.72;0.80;;;7.50;99.90;;;;;;5103786;28;20048;-63
2022/01/04 12:13:50;;;;;;;5.22;1.10;;;7.50;99.90;;;;;;5114410;27;20062;-64
2022/01/04 12:16:28;;;;;;;3.90;1.30;;;7.10;99.90;;;;;;5092585;28;20038;-63
2022/01/04 12:18:57;;;;;;;4.15;0.95;;;7.10;99.90;;;;;;5110057;27;20057;-63
2022/01/04 12:21:26;;;;;;;1.30;0.70;;;7.20;99.90;;;;;;5094919;28;20313;-63
2022/01/04 12:23:53;;;;;;;1.40;0.50;;;7.30;99.90;;;;;;5105869;28;20054;-64
2022/01/04 12:26:24;;;;;;;2.22;0.80;;;7.30;99.90;;;;;;5096084;28;20044;-63
2022/01/04 12:28:55;;;;;;;3.15;0.90;;;7.30;99.90;;;;;;5101976;27;20085;-63
2022/01/04 12:31:24;;;;;;;5.70;1.85;;;7.20;99.90;;;;;;5095522;28;20093;-63
2022/01/04 12:33:49;;;;;;;6.20;0.90;;;7.00;99.90;;;;;;5105694;27;20098;-63
2022/01/04 12:36:33;;;;;;;4.32;0.80;;;6.80;99.90;;;;;;5109042;28;20036;-63
2022/01/04 12:39:04;;;;;;;3.17;0.80;;;6.70;99.90;;;;;;5096495;27;20048;-62
2022/01/04 12:41:31;;;;;;;2.80;0.80;;;6.60;99.90;;;;;;5111116;28;20475;-63
2022/01/04 12:43:58;;;;;;;3.50;0.60;;;6.80;99.90;;;;;;5114970;27;20051;-63
2022/01/04 12:46:33;;;;;;;2.75;0.70;;;6.80;99.90;;;;;;5089983;28;20910;-64
2022/01/04 12:49:04;;;;;;;4.03;0.80;;;6.60;99.90;;;;;;5079475;28;20044;-63
2022/01/04 12:51:44;;;;;;;1.95;0.55;;;6.50;99.90;;;;;;5079220;28;20056;-64
2022/01/04 12:54:14;;;;;;;5.50;1.10;;;6.40;99.90;;;;;;5082383;28;20052;-63
2022/01/04 12:56:49;;;;;;;3.30;0.90;;;6.60;99.90;;;;;;5077783;28;20041;-63